sensor_id;sensor_type;location;lat;lon;timestamp;P1;durP1;ratioP1;P2;durP2;ratioP2
44189;SDS011;29856;52.144;5.430;2023-08-30T00:02:13;8.27;;;5.10;;
44189;SDS011;29856;52.144;5.430;2023-08-30T00:04:38;8.13;;;6.53;;
44189;SDS011;29856;52.144;5.430;2023-08-30T00:07:04;6.63;;;5.68;;
44189;SDS011;29856;52.144;5.430;2023-08-30T00:09:29;6.47;;;5.60;;
44189;SDS011;29856;52.144;5.430;2023-08-30T00:11:55;6.03;;;5.43;;
44189;SDS011;29856;52.144;5.430;2023-08-30T00:14:20;7.93;;;5.80;;
44189;SDS011;29856;52.144;5.430;2023-08-30T00:16:46;11.45;;;5.85;;
44189;SDS011;29856;52.144;5.430;2023-08-30T00:19:11;8.07;;;6.32;;
44189;SDS011;29856;52.144;5.430;2023-08-30T00:21:37;8.48;;;6.18;;
44189;SDS011;29856;52.144;5.430;2023-08-30T00:24:02;10.98;;;7.35;;
44189;SDS011;29856;52.144;5.430;2023-08-30T00:26:28;8.50;;;7.00;;
44189;SDS011;29856;52.144;5.430;2023-08-30T00:28:53;8.38;;;7.53;;
44189;SDS011;29856;52.144;5.430;2023-08-30T00:31:19;9.98;;;7.35;;
44189;SDS011;29856;52.144;5.430;2023-08-30T00:33:44;8.27;;;6.78;;
44189;SDS011;29856;52.144;5.430;2023-08-30T00:36:09;8.40;;;6.35;;
44189;SDS011;29856;52.144;5.430;2023-08-30T00:38:35;7.50;;;6.35;;
44189;SDS011;29856;52.144;5.430;2023-08-30T00:41:00;8.32;;;7.25;;
44189;SDS011;29856;52.144;5.430;2023-08-30T00:43:26;7.53;;;6.70;;
44189;SDS011;29856;52.144;5.430;2023-08-30T00:45:51;10.13;;;8.18;;
44189;SDS011;29856;52.144;5.430;2023-08-30T00:48:17;8.60;;;7.70;;
44189;SDS011;29856;52.144;5.430;2023-08-30T00:50:45;8.32;;;7.30;;
44189;SDS011;29856;52.144;5.430;2023-08-30T00:53:11;9.23;;;7.50;;
44189;SDS011;29856;52.144;5.430;2023-08-30T00:55:37;9.75;;;7.07;;
44189;SDS011;29856;52.144;5.430;2023-08-30T00:58:04;8.50;;;6.88;;
44189;SDS011;29856;52.144;5.430;2023-08-30T01:00:30;7.68;;;6.88;;
44189;SDS011;29856;52.144;5.430;2023-08-30T01:02:56;9.45;;;7.22;;
44189;SDS011;29856;52.144;5.430;2023-08-30T01:05:22;10.15;;;7.97;;
44189;SDS011;29856;52.144;5.430;2023-08-30T01:07:51;9.27;;;7.07;;
44189;SDS011;29856;52.144;5.430;2023-08-30T01:10:18;8.98;;;7.00;;
44189;SDS011;29856;52.144;5.430;2023-08-30T01:12:48;8.15;;;7.28;;
44189;SDS011;29856;52.144;5.430;2023-08-30T01:15:18;7.97;;;6.57;;
44189;SDS011;29856;52.144;5.430;2023-08-30T01:17:44;10.38;;;7.95;;
44189;SDS011;29856;52.144;5.430;2023-08-30T01:20:13;9.43;;;7.78;;
44189;SDS011;29856;52.144;5.430;2023-08-30T01:27:57;8.82;;;7.18;;
44189;SDS011;29856;52.144;5.430;2023-08-30T01:30:25;9.73;;;6.88;;
44189;SDS011;29856;52.144;5.430;2023-08-30T01:32:52;8.93;;;6.85;;
44189;SDS011;29856;52.144;5.430;2023-08-30T01:35:18;9.60;;;7.85;;
44189;SDS011;29856;52.144;5.430;2023-08-30T01:37:44;7.43;;;6.72;;
44189;SDS011;29856;52.144;5.430;2023-08-30T01:40:11;8.57;;;7.50;;
44189;SDS011;29856;52.144;5.430;2023-08-30T01:42:38;7.90;;;6.40;;
44189;SDS011;29856;52.144;5.430;2023-08-30T01:45:05;8.15;;;6.70;;
44189;SDS011;29856;52.144;5.430;2023-08-30T01:47:32;10.60;;;6.95;;
44189;SDS011;29856;52.144;5.430;2023-08-30T01:49:57;7.38;;;6.55;;
44189;SDS011;29856;52.144;5.430;2023-08-30T01:52:24;8.07;;;7.20;;
44189;SDS011;29856;52.144;5.430;2023-08-30T01:54:50;7.82;;;6.25;;
44189;SDS011;29856;52.144;5.430;2023-08-30T01:57:17;8.77;;;7.57;;
44189;SDS011;29856;52.144;5.430;2023-08-30T01:59:42;8.88;;;6.65;;
44189;SDS011;29856;52.144;5.430;2023-08-30T02:02:08;8.02;;;7.18;;
44189;SDS011;29856;52.144;5.430;2023-08-30T02:04:33;10.05;;;7.80;;
44189;SDS011;29856;52.144;5.430;2023-08-30T02:07:03;8.55;;;6.65;;
44189;SDS011;29856;52.144;5.430;2023-08-30T02:09:34;9.93;;;7.55;;
44189;SDS011;29856;52.144;5.430;2023-08-30T02:12:08;10.43;;;7.15;;
44189;SDS011;29856;52.144;5.430;2023-08-30T02:14:38;8.95;;;6.80;;
44189;SDS011;29856;52.144;5.430;2023-08-30T02:17:06;10.65;;;7.45;;
44189;SDS011;29856;52.144;5.430;2023-08-30T02:19:33;9.60;;;7.78;;
44189;SDS011;29856;52.144;5.430;2023-08-30T02:21:59;7.97;;;7.18;;
44189;SDS011;29856;52.144;5.430;2023-08-30T02:24:25;8.35;;;7.25;;
44189;SDS011;29856;52.144;5.430;2023-08-30T02:26:50;9.90;;;7.75;;
44189;SDS011;29856;52.144;5.430;2023-08-30T02:29:15;9.82;;;8.45;;
44189;SDS011;29856;52.144;5.430;2023-08-30T02:31:41;10.35;;;7.85;;
44189;SDS011;29856;52.144;5.430;2023-08-30T02:34:06;11.05;;;8.68;;
44189;SDS011;29856;52.144;5.430;2023-08-30T02:36:32;8.95;;;6.75;;
44189;SDS011;29856;52.144;5.430;2023-08-30T02:38:57;11.50;;;9.00;;
44189;SDS011;29856;52.144;5.430;2023-08-30T02:41:23;14.32;;;9.05;;
44189;SDS011;29856;52.144;5.430;2023-08-30T02:43:48;10.55;;;9.43;;
44189;SDS011;29856;52.144;5.430;2023-08-30T02:46:14;9.40;;;7.95;;
44189;SDS011;29856;52.144;5.430;2023-08-30T02:48:39;15.10;;;9.45;;
44189;SDS011;29856;52.144;5.430;2023-08-30T02:51:05;14.40;;;9.10;;
44189;SDS011;29856;52.144;5.430;2023-08-30T02:53:30;14.82;;;10.18;;
44189;SDS011;29856;52.144;5.430;2023-08-30T02:55:56;10.73;;;8.05;;
44189;SDS011;29856;52.144;5.430;2023-08-30T02:58:21;14.73;;;9.65;;
44189;SDS011;29856;52.144;5.430;2023-08-30T03:00:47;13.52;;;9.52;;
44189;SDS011;29856;52.144;5.430;2023-08-30T03:03:12;10.75;;;7.65;;
44189;SDS011;29856;52.144;5.430;2023-08-30T03:05:38;15.35;;;10.55;;
44189;SDS011;29856;52.144;5.430;2023-08-30T03:08:03;12.13;;;9.98;;
44189;SDS011;29856;52.144;5.430;2023-08-30T03:10:29;12.52;;;9.68;;
44189;SDS011;29856;52.144;5.430;2023-08-30T03:12:54;11.45;;;10.05;;
44189;SDS011;29856;52.144;5.430;2023-08-30T03:15:20;13.68;;;8.93;;
44189;SDS011;29856;52.144;5.430;2023-08-30T03:17:45;12.70;;;9.13;;
44189;SDS011;29856;52.144;5.430;2023-08-30T03:20:11;12.95;;;9.93;;
44189;SDS011;29856;52.144;5.430;2023-08-30T03:22:36;14.90;;;10.02;;
44189;SDS011;29856;52.144;5.430;2023-08-30T03:25:02;13.30;;;10.30;;
44189;SDS011;29856;52.144;5.430;2023-08-30T03:27:27;15.10;;;11.35;;
44189;SDS011;29856;52.144;5.430;2023-08-30T03:29:54;13.32;;;10.30;;
44189;SDS011;29856;52.144;5.430;2023-08-30T03:32:20;15.55;;;10.65;;
44189;SDS011;29856;52.144;5.430;2023-08-30T03:34:45;13.30;;;9.90;;
44189;SDS011;29856;52.144;5.430;2023-08-30T03:37:12;15.07;;;10.50;;
44189;SDS011;29856;52.144;5.430;2023-08-30T03:39:41;11.43;;;8.88;;
44189;SDS011;29856;52.144;5.430;2023-08-30T03:42:07;14.38;;;9.82;;
44189;SDS011;29856;52.144;5.430;2023-08-30T03:44:33;15.90;;;11.40;;
44189;SDS011;29856;52.144;5.430;2023-08-30T03:46:58;14.82;;;11.65;;
44189;SDS011;29856;52.144;5.430;2023-08-30T03:49:24;14.80;;;10.75;;
44189;SDS011;29856;52.144;5.430;2023-08-30T03:51:49;12.43;;;10.00;;
44189;SDS011;29856;52.144;5.430;2023-08-30T03:54:15;15.38;;;10.38;;
44189;SDS011;29856;52.144;5.430;2023-08-30T03:56:40;13.57;;;9.98;;
44189;SDS011;29856;52.144;5.430;2023-08-30T03:59:06;11.43;;;8.70;;
44189;SDS011;29856;52.144;5.430;2023-08-30T04:01:31;15.20;;;10.98;;
44189;SDS011;29856;52.144;5.430;2023-08-30T04:03:57;16.55;;;11.05;;
44189;SDS011;29856;52.144;5.430;2023-08-30T04:06:22;14.48;;;10.07;;
44189;SDS011;29856;52.144;5.430;2023-08-30T04:08:48;18.17;;;11.25;;
44189;SDS011;29856;52.144;5.430;2023-08-30T04:11:13;14.38;;;9.93;;
44189;SDS011;29856;52.144;5.430;2023-08-30T04:13:39;12.00;;;9.13;;
44189;SDS011;29856;52.144;5.430;2023-08-30T04:16:04;13.25;;;9.80;;
44189;SDS011;29856;52.144;5.430;2023-08-30T04:18:30;13.05;;;9.70;;
44189;SDS011;29856;52.144;5.430;2023-08-30T04:20:56;12.45;;;9.93;;
44189;SDS011;29856;52.144;5.430;2023-08-30T04:23:23;17.08;;;11.18;;
44189;SDS011;29856;52.144;5.430;2023-08-30T04:25:48;15.05;;;11.00;;
44189;SDS011;29856;52.144;5.430;2023-08-30T04:28:13;14.68;;;10.68;;
44189;SDS011;29856;52.144;5.430;2023-08-30T04:30:39;17.10;;;11.27;;
44189;SDS011;29856;52.144;5.430;2023-08-30T04:33:04;13.65;;;9.52;;
44189;SDS011;29856;52.144;5.430;2023-08-30T04:35:30;14.93;;;10.57;;
44189;SDS011;29856;52.144;5.430;2023-08-30T04:37:56;12.77;;;9.18;;
44189;SDS011;29856;52.144;5.430;2023-08-30T04:40:22;13.10;;;10.45;;
44189;SDS011;29856;52.144;5.430;2023-08-30T04:42:48;13.55;;;10.23;;
44189;SDS011;29856;52.144;5.430;2023-08-30T04:45:13;14.68;;;10.27;;
44189;SDS011;29856;52.144;5.430;2023-08-30T04:47:38;14.30;;;10.45;;
44189;SDS011;29856;52.144;5.430;2023-08-30T04:50:04;16.00;;;9.57;;
44189;SDS011;29856;52.144;5.430;2023-08-30T04:52:30;11.98;;;9.73;;
44189;SDS011;29856;52.144;5.430;2023-08-30T04:54:56;13.75;;;10.70;;
44189;SDS011;29856;52.144;5.430;2023-08-30T04:57:21;11.93;;;9.98;;
44189;SDS011;29856;52.144;5.430;2023-08-30T04:59:47;13.40;;;9.52;;
44189;SDS011;29856;52.144;5.430;2023-08-30T05:02:13;14.85;;;9.82;;
44189;SDS011;29856;52.144;5.430;2023-08-30T05:04:38;11.48;;;8.70;;
44189;SDS011;29856;52.144;5.430;2023-08-30T05:07:04;15.70;;;9.90;;
44189;SDS011;29856;52.144;5.430;2023-08-30T05:09:30;13.18;;;9.30;;
44189;SDS011;29856;52.144;5.430;2023-08-30T05:11:55;14.07;;;10.25;;
44189;SDS011;29856;52.144;5.430;2023-08-30T05:14:21;15.68;;;10.88;;
44189;SDS011;29856;52.144;5.430;2023-08-30T05:16:48;11.27;;;10.07;;
44189;SDS011;29856;52.144;5.430;2023-08-30T05:19:14;12.65;;;9.38;;
44189;SDS011;29856;52.144;5.430;2023-08-30T05:21:39;15.10;;;11.18;;
44189;SDS011;29856;52.144;5.430;2023-08-30T05:24:05;15.48;;;10.93;;
44189;SDS011;29856;52.144;5.430;2023-08-30T05:26:31;11.88;;;8.52;;
44189;SDS011;29856;52.144;5.430;2023-08-30T05:28:56;13.40;;;10.02;;
44189;SDS011;29856;52.144;5.430;2023-08-30T05:31:21;14.00;;;9.80;;
44189;SDS011;29856;52.144;5.430;2023-08-30T05:33:47;17.33;;;11.13;;
44189;SDS011;29856;52.144;5.430;2023-08-30T05:36:12;13.07;;;9.88;;
44189;SDS011;29856;52.144;5.430;2023-08-30T05:38:38;13.95;;;9.35;;
44189;SDS011;29856;52.144;5.430;2023-08-30T05:41:03;14.80;;;11.30;;
44189;SDS011;29856;52.144;5.430;2023-08-30T05:43:29;16.85;;;11.13;;
44189;SDS011;29856;52.144;5.430;2023-08-30T05:45:54;13.23;;;9.38;;
44189;SDS011;29856;52.144;5.430;2023-08-30T05:48:20;13.93;;;10.13;;
44189;SDS011;29856;52.144;5.430;2023-08-30T05:50:45;18.67;;;10.77;;
44189;SDS011;29856;52.144;5.430;2023-08-30T05:53:11;12.30;;;9.43;;
44189;SDS011;29856;52.144;5.430;2023-08-30T05:55:36;15.70;;;10.30;;
44189;SDS011;29856;52.144;5.430;2023-08-30T05:58:02;14.90;;;9.70;;
44189;SDS011;29856;52.144;5.430;2023-08-30T06:00:28;12.30;;;10.05;;
44189;SDS011;29856;52.144;5.430;2023-08-30T06:02:53;14.07;;;9.38;;
44189;SDS011;29856;52.144;5.430;2023-08-30T06:05:19;14.30;;;9.88;;
44189;SDS011;29856;52.144;5.430;2023-08-30T06:07:44;15.13;;;9.85;;
44189;SDS011;29856;52.144;5.430;2023-08-30T06:10:10;13.13;;;10.68;;
44189;SDS011;29856;52.144;5.430;2023-08-30T06:12:35;14.75;;;11.38;;
44189;SDS011;29856;52.144;5.430;2023-08-30T06:15:01;15.63;;;11.52;;
44189;SDS011;29856;52.144;5.430;2023-08-30T06:17:27;15.05;;;11.32;;
44189;SDS011;29856;52.144;5.430;2023-08-30T06:19:52;15.90;;;11.93;;
44189;SDS011;29856;52.144;5.430;2023-08-30T06:22:17;19.60;;;12.45;;
44189;SDS011;29856;52.144;5.430;2023-08-30T06:24:43;17.95;;;12.07;;
44189;SDS011;29856;52.144;5.430;2023-08-30T06:27:08;15.07;;;11.27;;
44189;SDS011;29856;52.144;5.430;2023-08-30T06:29:34;15.98;;;11.40;;
44189;SDS011;29856;52.144;5.430;2023-08-30T06:31:59;18.83;;;12.40;;
44189;SDS011;29856;52.144;5.430;2023-08-30T06:34:25;20.77;;;10.82;;
44189;SDS011;29856;52.144;5.430;2023-08-30T06:36:50;11.88;;;10.18;;
44189;SDS011;29856;52.144;5.430;2023-08-30T06:39:17;15.23;;;11.82;;
44189;SDS011;29856;52.144;5.430;2023-08-30T06:41:42;16.48;;;11.77;;
44189;SDS011;29856;52.144;5.430;2023-08-30T06:44:08;16.02;;;11.02;;
44189;SDS011;29856;52.144;5.430;2023-08-30T06:46:33;17.17;;;11.73;;
44189;SDS011;29856;52.144;5.430;2023-08-30T06:48:59;16.23;;;11.60;;
44189;SDS011;29856;52.144;5.430;2023-08-30T06:51:24;13.95;;;11.65;;
44189;SDS011;29856;52.144;5.430;2023-08-30T06:53:50;14.23;;;11.45;;
44189;SDS011;29856;52.144;5.430;2023-08-30T06:56:16;17.00;;;11.60;;
44189;SDS011;29856;52.144;5.430;2023-08-30T06:58:41;17.27;;;11.68;;
44189;SDS011;29856;52.144;5.430;2023-08-30T07:01:07;16.48;;;12.50;;
44189;SDS011;29856;52.144;5.430;2023-08-30T07:03:32;16.42;;;12.43;;
44189;SDS011;29856;52.144;5.430;2023-08-30T07:05:58;20.38;;;12.90;;
44189;SDS011;29856;52.144;5.430;2023-08-30T07:08:23;17.17;;;12.90;;
44189;SDS011;29856;52.144;5.430;2023-08-30T07:10:49;16.33;;;11.35;;
44189;SDS011;29856;52.144;5.430;2023-08-30T07:13:16;17.42;;;11.25;;
44189;SDS011;29856;52.144;5.430;2023-08-30T07:15:41;15.75;;;11.88;;
44189;SDS011;29856;52.144;5.430;2023-08-30T07:18:07;16.73;;;11.70;;
44189;SDS011;29856;52.144;5.430;2023-08-30T07:20:34;16.75;;;11.43;;
44189;SDS011;29856;52.144;5.430;2023-08-30T07:22:59;20.27;;;12.00;;
44189;SDS011;29856;52.144;5.430;2023-08-30T07:25:25;17.60;;;11.95;;
44189;SDS011;29856;52.144;5.430;2023-08-30T07:27:51;15.32;;;10.65;;
44189;SDS011;29856;52.144;5.430;2023-08-30T07:30:16;14.80;;;11.25;;
44189;SDS011;29856;52.144;5.430;2023-08-30T07:32:42;16.55;;;11.73;;
44189;SDS011;29856;52.144;5.430;2023-08-30T07:35:08;12.85;;;10.30;;
44189;SDS011;29856;52.144;5.430;2023-08-30T07:37:34;14.82;;;9.90;;
44189;SDS011;29856;52.144;5.430;2023-08-30T07:40:00;13.63;;;9.82;;
44189;SDS011;29856;52.144;5.430;2023-08-30T07:42:25;13.45;;;8.88;;
44189;SDS011;29856;52.144;5.430;2023-08-30T07:44:51;17.98;;;10.85;;
44189;SDS011;29856;52.144;5.430;2023-08-30T07:47:16;16.90;;;11.10;;
44189;SDS011;29856;52.144;5.430;2023-08-30T07:49:42;14.18;;;10.93;;
44189;SDS011;29856;52.144;5.430;2023-08-30T07:52:07;17.33;;;10.38;;
44189;SDS011;29856;52.144;5.430;2023-08-30T07:54:33;14.57;;;10.55;;
44189;SDS011;29856;52.144;5.430;2023-08-30T07:56:58;16.15;;;10.38;;
44189;SDS011;29856;52.144;5.430;2023-08-30T07:59:24;14.85;;;11.10;;
44189;SDS011;29856;52.144;5.430;2023-08-30T08:01:49;11.93;;;8.73;;
44189;SDS011;29856;52.144;5.430;2023-08-30T08:04:14;12.55;;;9.73;;
44189;SDS011;29856;52.144;5.430;2023-08-30T08:06:40;14.80;;;11.70;;
44189;SDS011;29856;52.144;5.430;2023-08-30T08:09:05;14.85;;;10.77;;
44189;SDS011;29856;52.144;5.430;2023-08-30T08:11:31;12.52;;;10.30;;
44189;SDS011;29856;52.144;5.430;2023-08-30T08:13:57;12.98;;;10.32;;
44189;SDS011;29856;52.144;5.430;2023-08-30T08:16:22;12.98;;;9.52;;
44189;SDS011;29856;52.144;5.430;2023-08-30T08:18:47;12.98;;;9.70;;
44189;SDS011;29856;52.144;5.430;2023-08-30T08:21:13;11.15;;;9.95;;
44189;SDS011;29856;52.144;5.430;2023-08-30T08:23:38;14.95;;;10.20;;
44189;SDS011;29856;52.144;5.430;2023-08-30T08:26:04;13.80;;;9.10;;
44189;SDS011;29856;52.144;5.430;2023-08-30T08:28:29;12.95;;;10.68;;
44189;SDS011;29856;52.144;5.430;2023-08-30T08:30:55;11.65;;;9.65;;
44189;SDS011;29856;52.144;5.430;2023-08-30T08:33:20;12.25;;;9.35;;
44189;SDS011;29856;52.144;5.430;2023-08-30T08:35:47;12.00;;;8.65;;
44189;SDS011;29856;52.144;5.430;2023-08-30T08:38:13;10.00;;;7.63;;
44189;SDS011;29856;52.144;5.430;2023-08-30T08:40:39;9.48;;;7.43;;
44189;SDS011;29856;52.144;5.430;2023-08-30T08:43:05;10.00;;;7.90;;
44189;SDS011;29856;52.144;5.430;2023-08-30T08:45:33;11.45;;;8.23;;
44189;SDS011;29856;52.144;5.430;2023-08-30T08:48:01;10.65;;;7.90;;
44189;SDS011;29856;52.144;5.430;2023-08-30T08:50:29;10.65;;;7.68;;
44189;SDS011;29856;52.144;5.430;2023-08-30T08:52:54;11.10;;;7.15;;
44189;SDS011;29856;52.144;5.430;2023-08-30T08:55:21;11.30;;;7.50;;
44189;SDS011;29856;52.144;5.430;2023-08-30T08:57:47;13.10;;;8.07;;
44189;SDS011;29856;52.144;5.430;2023-08-30T09:00:13;12.00;;;8.45;;
44189;SDS011;29856;52.144;5.430;2023-08-30T09:02:39;12.10;;;8.30;;
44189;SDS011;29856;52.144;5.430;2023-08-30T09:05:06;12.00;;;8.02;;
44189;SDS011;29856;52.144;5.430;2023-08-30T09:07:32;8.77;;;7.57;;
44189;SDS011;29856;52.144;5.430;2023-08-30T09:09:58;9.80;;;8.60;;
44189;SDS011;29856;52.144;5.430;2023-08-30T09:12:24;9.20;;;7.45;;
44189;SDS011;29856;52.144;5.430;2023-08-30T09:14:53;10.77;;;7.90;;
44189;SDS011;29856;52.144;5.430;2023-08-30T09:17:19;12.98;;;8.30;;
44189;SDS011;29856;52.144;5.430;2023-08-30T09:19:45;11.00;;;7.75;;
44189;SDS011;29856;52.144;5.430;2023-08-30T09:22:11;11.02;;;7.43;;
44189;SDS011;29856;52.144;5.430;2023-08-30T09:24:37;9.27;;;7.30;;
44189;SDS011;29856;52.144;5.430;2023-08-30T09:27:03;12.65;;;7.43;;
44189;SDS011;29856;52.144;5.430;2023-08-30T09:29:28;9.65;;;7.78;;
44189;SDS011;29856;52.144;5.430;2023-08-30T09:31:55;10.63;;;7.78;;
44189;SDS011;29856;52.144;5.430;2023-08-30T09:34:23;10.02;;;7.15;;
44189;SDS011;29856;52.144;5.430;2023-08-30T09:36:50;7.90;;;7.10;;
44189;SDS011;29856;52.144;5.430;2023-08-30T09:39:15;9.93;;;7.72;;
44189;SDS011;29856;52.144;5.430;2023-08-30T09:41:45;9.15;;;7.53;;
44189;SDS011;29856;52.144;5.430;2023-08-30T09:44:12;7.65;;;6.68;;
44189;SDS011;29856;52.144;5.430;2023-08-30T09:46:51;9.32;;;7.32;;
44189;SDS011;29856;52.144;5.430;2023-08-30T09:49:21;9.80;;;7.72;;
44189;SDS011;29856;52.144;5.430;2023-08-30T09:51:48;9.50;;;7.25;;
44189;SDS011;29856;52.144;5.430;2023-08-30T09:54:15;10.18;;;7.00;;
44189;SDS011;29856;52.144;5.430;2023-08-30T09:56:42;6.30;;;5.70;;
44189;SDS011;29856;52.144;5.430;2023-08-30T09:59:09;8.18;;;5.70;;
44189;SDS011;29856;52.144;5.430;2023-08-30T10:01:35;10.30;;;7.03;;
44189;SDS011;29856;52.144;5.430;2023-08-30T10:04:01;10.98;;;8.88;;
44189;SDS011;29856;52.144;5.430;2023-08-30T10:06:28;8.63;;;7.72;;
44189;SDS011;29856;52.144;5.430;2023-08-30T10:08:54;9.60;;;7.75;;
44189;SDS011;29856;52.144;5.430;2023-08-30T10:11:21;10.90;;;8.05;;
44189;SDS011;29856;52.144;5.430;2023-08-30T10:13:48;9.85;;;8.65;;
44189;SDS011;29856;52.144;5.430;2023-08-30T10:16:18;11.80;;;7.47;;
44189;SDS011;29856;52.144;5.430;2023-08-30T10:18:45;11.52;;;9.20;;
44189;SDS011;29856;52.144;5.430;2023-08-30T10:21:15;8.88;;;7.97;;
44189;SDS011;29856;52.144;5.430;2023-08-30T10:23:44;11.95;;;9.90;;
44189;SDS011;29856;52.144;5.430;2023-08-30T10:26:12;9.02;;;7.97;;
44189;SDS011;29856;52.144;5.430;2023-08-30T10:28:38;10.45;;;9.48;;
44189;SDS011;29856;52.144;5.430;2023-08-30T10:31:06;9.68;;;8.52;;
44189;SDS011;29856;52.144;5.430;2023-08-30T10:33:32;10.50;;;9.50;;
44189;SDS011;29856;52.144;5.430;2023-08-30T10:36:06;10.23;;;9.23;;
44189;SDS011;29856;52.144;5.430;2023-08-30T10:38:32;11.15;;;9.13;;
44189;SDS011;29856;52.144;5.430;2023-08-30T10:41:07;8.95;;;8.07;;
44189;SDS011;29856;52.144;5.430;2023-08-30T10:43:34;9.77;;;8.88;;
44189;SDS011;29856;52.144;5.430;2023-08-30T10:46:01;9.80;;;8.07;;
44189;SDS011;29856;52.144;5.430;2023-08-30T10:48:34;8.07;;;7.38;;
44189;SDS011;29856;52.144;5.430;2023-08-30T10:51:00;7.07;;;6.35;;
44189;SDS011;29856;52.144;5.430;2023-08-30T10:53:29;5.72;;;5.22;;
44189;SDS011;29856;52.144;5.430;2023-08-30T10:56:10;10.23;;;5.05;;
44189;SDS011;29856;52.144;5.430;2023-08-30T10:58:40;4.95;;;4.45;;
44189;SDS011;29856;52.144;5.430;2023-08-30T11:01:07;6.00;;;4.28;;
44189;SDS011;29856;52.144;5.430;2023-08-30T11:03:35;4.88;;;3.50;;
44189;SDS011;29856;52.144;5.430;2023-08-30T11:06:01;9.57;;;3.55;;
44189;SDS011;29856;52.144;5.430;2023-08-30T11:08:28;7.40;;;3.20;;
44189;SDS011;29856;52.144;5.430;2023-08-30T11:11:02;14.75;;;3.95;;
44189;SDS011;29856;52.144;5.430;2023-08-30T11:13:29;5.45;;;3.00;;
44189;SDS011;29856;52.144;5.430;2023-08-30T11:15:59;10.48;;;3.58;;
44189;SDS011;29856;52.144;5.430;2023-08-30T11:18:28;9.20;;;3.78;;
44189;SDS011;29856;52.144;5.430;2023-08-30T11:20:57;5.97;;;3.05;;
44189;SDS011;29856;52.144;5.430;2023-08-30T11:23:26;6.43;;;3.08;;
44189;SDS011;29856;52.144;5.430;2023-08-30T11:25:52;10.25;;;3.00;;
44189;SDS011;29856;52.144;5.430;2023-08-30T11:28:24;7.78;;;2.80;;
44189;SDS011;29856;52.144;5.430;2023-08-30T11:30:53;7.03;;;2.67;;
44189;SDS011;29856;52.144;5.430;2023-08-30T11:33:19;7.18;;;2.72;;
44189;SDS011;29856;52.144;5.430;2023-08-30T11:35:45;10.05;;;2.92;;
44189;SDS011;29856;52.144;5.430;2023-08-30T11:38:14;10.05;;;2.67;;
44189;SDS011;29856;52.144;5.430;2023-08-30T11:40:40;7.32;;;2.67;;
44189;SDS011;29856;52.144;5.430;2023-08-30T11:43:06;6.60;;;2.90;;
44189;SDS011;29856;52.144;5.430;2023-08-30T11:45:32;6.38;;;2.60;;
44189;SDS011;29856;52.144;5.430;2023-08-30T11:47:58;5.30;;;2.20;;
44189;SDS011;29856;52.144;5.430;2023-08-30T11:50:24;11.25;;;2.88;;
44189;SDS011;29856;52.144;5.430;2023-08-30T11:52:51;11.15;;;2.80;;
44189;SDS011;29856;52.144;5.430;2023-08-30T11:55:16;10.32;;;2.70;;
44189;SDS011;29856;52.144;5.430;2023-08-30T11:57:47;10.60;;;2.60;;
44189;SDS011;29856;52.144;5.430;2023-08-30T12:00:14;9.45;;;2.60;;
44189;SDS011;29856;52.144;5.430;2023-08-30T12:02:40;8.80;;;2.58;;
44189;SDS011;29856;52.144;5.430;2023-08-30T12:05:05;9.55;;;3.05;;
44189;SDS011;29856;52.144;5.430;2023-08-30T12:07:36;9.60;;;2.72;;
44189;SDS011;29856;52.144;5.430;2023-08-30T12:10:05;11.20;;;2.97;;
44189;SDS011;29856;52.144;5.430;2023-08-30T12:12:31;11.65;;;2.92;;
44189;SDS011;29856;52.144;5.430;2023-08-30T12:14:56;11.95;;;3.72;;
44189;SDS011;29856;52.144;5.430;2023-08-30T12:17:22;7.50;;;2.35;;
44189;SDS011;29856;52.144;5.430;2023-08-30T12:19:57;11.70;;;2.38;;
44189;SDS011;29856;52.144;5.430;2023-08-30T12:22:23;12.07;;;3.17;;
44189;SDS011;29856;52.144;5.430;2023-08-30T12:24:48;7.78;;;2.42;;
44189;SDS011;29856;52.144;5.430;2023-08-30T12:27:14;10.20;;;2.63;;
44189;SDS011;29856;52.144;5.430;2023-08-30T12:29:40;13.18;;;2.40;;
44189;SDS011;29856;52.144;5.430;2023-08-30T12:32:06;7.07;;;2.60;;
44189;SDS011;29856;52.144;5.430;2023-08-30T12:34:32;10.85;;;2.72;;
44189;SDS011;29856;52.144;5.430;2023-08-30T12:36:58;8.45;;;2.67;;
44189;SDS011;29856;52.144;5.430;2023-08-30T12:39:24;11.27;;;3.03;;
44189;SDS011;29856;52.144;5.430;2023-08-30T12:41:49;6.40;;;2.13;;
44189;SDS011;29856;52.144;5.430;2023-08-30T12:44:15;8.70;;;2.50;;
44189;SDS011;29856;52.144;5.430;2023-08-30T12:46:40;9.23;;;2.78;;
44189;SDS011;29856;52.144;5.430;2023-08-30T12:49:06;12.10;;;2.83;;
44189;SDS011;29856;52.144;5.430;2023-08-30T12:51:31;6.05;;;2.75;;
44189;SDS011;29856;52.144;5.430;2023-08-30T12:53:56;12.30;;;3.17;;
44189;SDS011;29856;52.144;5.430;2023-08-30T12:56:22;11.02;;;2.40;;
44189;SDS011;29856;52.144;5.430;2023-08-30T12:58:47;9.75;;;2.65;;
44189;SDS011;29856;52.144;5.430;2023-08-30T13:01:13;8.50;;;2.88;;
44189;SDS011;29856;52.144;5.430;2023-08-30T13:03:38;5.18;;;2.15;;
44189;SDS011;29856;52.144;5.430;2023-08-30T13:06:04;9.10;;;2.60;;
44189;SDS011;29856;52.144;5.430;2023-08-30T13:08:29;10.45;;;2.50;;
44189;SDS011;29856;52.144;5.430;2023-08-30T13:10:55;8.93;;;2.40;;
44189;SDS011;29856;52.144;5.430;2023-08-30T13:13:20;9.32;;;2.50;;
44189;SDS011;29856;52.144;5.430;2023-08-30T13:15:46;6.50;;;2.05;;
44189;SDS011;29856;52.144;5.430;2023-08-30T13:18:12;7.65;;;2.45;;
44189;SDS011;29856;52.144;5.430;2023-08-30T13:20:37;9.07;;;2.08;;
44189;SDS011;29856;52.144;5.430;2023-08-30T13:23:03;8.90;;;2.40;;
44189;SDS011;29856;52.144;5.430;2023-08-30T13:25:29;10.13;;;2.45;;
44189;SDS011;29856;52.144;5.430;2023-08-30T13:27:54;7.05;;;2.05;;
44189;SDS011;29856;52.144;5.430;2023-08-30T13:30:20;12.10;;;2.30;;
44189;SDS011;29856;52.144;5.430;2023-08-30T13:32:45;12.35;;;2.65;;
44189;SDS011;29856;52.144;5.430;2023-08-30T13:35:11;16.85;;;3.10;;
44189;SDS011;29856;52.144;5.430;2023-08-30T13:37:36;6.75;;;2.42;;
44189;SDS011;29856;52.144;5.430;2023-08-30T13:40:02;10.50;;;3.08;;
44189;SDS011;29856;52.144;5.430;2023-08-30T13:42:27;6.00;;;1.85;;
44189;SDS011;29856;52.144;5.430;2023-08-30T13:44:53;11.30;;;2.10;;
44189;SDS011;29856;52.144;5.430;2023-08-30T13:47:19;9.88;;;2.40;;
44189;SDS011;29856;52.144;5.430;2023-08-30T13:49:44;6.88;;;1.90;;
44189;SDS011;29856;52.144;5.430;2023-08-30T13:52:09;9.10;;;1.95;;
44189;SDS011;29856;52.144;5.430;2023-08-30T13:54:35;5.63;;;2.08;;
44189;SDS011;29856;52.144;5.430;2023-08-30T13:57:00;7.15;;;2.20;;
44189;SDS011;29856;52.144;5.430;2023-08-30T13:59:26;4.82;;;1.50;;
44189;SDS011;29856;52.144;5.430;2023-08-30T14:01:51;11.90;;;2.30;;
44189;SDS011;29856;52.144;5.430;2023-08-30T14:04:17;10.40;;;1.95;;
44189;SDS011;29856;52.144;5.430;2023-08-30T14:06:42;8.10;;;2.00;;
44189;SDS011;29856;52.144;5.430;2023-08-30T14:09:08;10.45;;;2.33;;
44189;SDS011;29856;52.144;5.430;2023-08-30T14:11:34;10.90;;;2.88;;
44189;SDS011;29856;52.144;5.430;2023-08-30T14:14:00;9.00;;;1.90;;
44189;SDS011;29856;52.144;5.430;2023-08-30T14:16:26;6.53;;;1.40;;
44189;SDS011;29856;52.144;5.430;2023-08-30T14:18:52;5.72;;;1.42;;
44189;SDS011;29856;52.144;5.430;2023-08-30T14:21:17;6.03;;;1.40;;
44189;SDS011;29856;52.144;5.430;2023-08-30T14:23:43;5.38;;;2.08;;
44189;SDS011;29856;52.144;5.430;2023-08-30T14:26:08;5.05;;;1.83;;
44189;SDS011;29856;52.144;5.430;2023-08-30T14:28:34;9.95;;;1.95;;
44189;SDS011;29856;52.144;5.430;2023-08-30T14:31:03;5.57;;;1.95;;
44189;SDS011;29856;52.144;5.430;2023-08-30T14:33:31;6.85;;;1.67;;
44189;SDS011;29856;52.144;5.430;2023-08-30T14:35:57;5.13;;;1.67;;